createdAt,value
2018-12-10T00:01:58.406Z,30.17
2018-12-10T00:04:26.925Z,27.62
2018-12-10T00:06:55.441Z,32.85
2018-12-10T00:09:23.928Z,27.77
2018-12-10T00:11:52.463Z,29.12
2018-12-10T00:14:21.073Z,31.03
2018-12-10T00:16:49.575Z,29.65
2018-12-10T00:19:18.141Z,29.32
2018-12-10T00:21:46.643Z,31.23
2018-12-10T00:24:15.170Z,29.10
2018-12-10T00:26:43.723Z,30.92
2018-12-10T00:29:12.461Z,31.97
2018-12-10T00:31:40.960Z,35.10
2018-12-10T00:34:09.487Z,35.38
2018-12-10T00:36:38.014Z,34.55
2018-12-10T00:39:07.654Z,32.53
2018-12-10T00:41:36.186Z,30.57
2018-12-10T00:44:04.710Z,31.65
2018-12-10T00:46:33.248Z,29.70
2018-12-10T00:49:01.752Z,27.85
2018-12-10T00:51:30.291Z,28.23
2018-12-10T00:53:58.883Z,32.83
2018-12-10T00:56:27.493Z,30.97
2018-12-10T00:58:56.006Z,29.98
2018-12-10T01:01:24.636Z,30.97
2018-12-10T01:03:53.224Z,31.07
2018-12-10T01:06:21.723Z,27.15
2018-12-10T01:08:50.218Z,26.65
2018-12-10T01:11:18.751Z,28.50
2018-12-10T01:13:47.246Z,28.55
2018-12-10T01:16:15.752Z,25.67
2018-12-10T01:18:44.254Z,24.70
2018-12-10T01:21:12.752Z,23.30
2018-12-10T01:23:41.306Z,24.07
2018-12-10T01:26:09.866Z,25.12
2018-12-10T01:28:38.390Z,25.80
2018-12-10T01:31:06.884Z,26.67
2018-12-10T01:33:35.410Z,23.95
2018-12-10T01:36:03.980Z,21.95
2018-12-10T01:38:32.486Z,20.40
2018-12-10T01:41:00.992Z,21.42
2018-12-10T01:43:29.529Z,18.48
2018-12-10T01:45:58.018Z,25.02
2018-12-10T01:48:26.620Z,24.60
2018-12-10T01:50:55.151Z,26.68
2018-12-10T01:53:23.685Z,24.18
2018-12-10T01:55:52.258Z,20.90
2018-12-10T01:58:20.875Z,28.90
2018-12-10T02:00:49.377Z,24.27
2018-12-10T02:03:17.917Z,23.92
2018-12-10T02:05:46.434Z,23.27
2018-12-10T02:08:14.913Z,19.05
2018-12-10T02:10:43.445Z,12.00
2018-12-10T02:13:12.423Z,14.23
2018-12-10T02:15:40.915Z,9.10
2018-12-10T02:18:09.466Z,12.40
2018-12-10T02:20:37.943Z,11.48
2018-12-10T02:23:06.427Z,12.33
2018-12-10T02:25:34.975Z,13.88
2018-12-10T02:28:03.459Z,12.07
2018-12-10T02:30:32.111Z,9.80
2018-12-10T02:33:00.667Z,13.03
2018-12-10T02:35:29.224Z,13.62
2018-12-10T02:37:57.727Z,13.25
2018-12-10T02:40:26.506Z,11.40
2018-12-10T02:42:55.038Z,12.50
2018-12-10T02:45:23.517Z,11.95
2018-12-10T02:47:52.060Z,11.57
2018-12-10T02:50:20.553Z,10.65
2018-12-10T02:52:49.046Z,11.33
2018-12-10T02:55:17.569Z,11.68
2018-12-10T02:57:46.282Z,10.95
2018-12-10T03:00:14.825Z,12.53
2018-12-10T03:02:43.347Z,11.50
2018-12-10T03:05:12.382Z,10.23
2018-12-10T03:07:41.411Z,9.85
2018-12-10T03:10:09.978Z,10.25
2018-12-10T03:12:38.549Z,10.97
2018-12-10T03:15:07.100Z,11.33
2018-12-10T03:17:35.652Z,8.95
2018-12-10T03:20:04.227Z,11.12
2018-12-10T03:22:32.800Z,11.03
2018-12-10T03:25:01.342Z,11.33
2018-12-10T03:27:29.855Z,9.70
2018-12-10T03:29:58.352Z,13.75
2018-12-10T03:32:26.849Z,10.72
2018-12-10T03:34:55.392Z,13.32
2018-12-10T03:37:23.941Z,14.15
2018-12-10T03:39:52.471Z,13.18
2018-12-10T03:42:20.981Z,13.83
2018-12-10T03:44:49.459Z,12.78
2018-12-10T03:47:17.985Z,12.75
2018-12-10T03:49:46.525Z,13.83
2018-12-10T03:52:15.033Z,11.45
2018-12-10T03:54:43.534Z,12.07
2018-12-10T03:57:12.612Z,12.05
2018-12-10T03:59:41.129Z,9.85
2018-12-10T04:02:09.652Z,12.15
2018-12-10T04:04:38.206Z,12.33
2018-12-10T04:07:06.696Z,9.98
2018-12-10T04:09:35.190Z,12.00
2018-12-10T04:12:03.742Z,12.28
2018-12-10T04:14:32.249Z,13.23
2018-12-10T04:17:00.764Z,9.30
2018-12-10T04:19:29.289Z,14.60
2018-12-10T04:21:57.766Z,11.37
2018-12-10T04:24:26.298Z,10.58
2018-12-10T04:26:54.828Z,10.58
2018-12-10T04:29:23.321Z,9.27
2018-12-10T04:31:51.810Z,11.12
2018-12-10T04:34:20.299Z,9.00
2018-12-10T04:36:48.864Z,9.20
2018-12-10T04:39:17.359Z,9.10
2018-12-10T04:41:45.888Z,7.85
2018-12-10T04:44:14.453Z,9.03
2018-12-10T04:46:43.729Z,9.93
2018-12-10T04:49:12.279Z,10.63
2018-12-10T04:51:40.861Z,10.70
2018-12-10T04:54:09.421Z,10.28
2018-12-10T04:56:37.922Z,11.35
2018-12-10T04:59:06.479Z,11.45
2018-12-10T05:01:35.707Z,9.80
2018-12-10T05:04:04.853Z,11.23
2018-12-10T05:06:33.467Z,11.50
2018-12-10T05:09:02.005Z,13.30
2018-12-10T05:11:30.512Z,10.63
2018-12-10T05:13:59.061Z,13.93
2018-12-10T05:16:27.678Z,17.10
2018-12-10T05:18:56.197Z,17.37
2018-12-10T05:21:24.727Z,19.10
2018-12-10T05:23:53.309Z,22.82
2018-12-10T05:26:21.926Z,24.47
2018-12-10T05:28:50.462Z,18.32
2018-12-10T05:31:18.968Z,19.50
2018-12-10T05:33:47.533Z,15.40
2018-12-10T05:36:16.072Z,21.37
2018-12-10T05:38:44.718Z,14.20
2018-12-10T05:41:13.558Z,17.75
2018-12-10T05:43:42.552Z,16.52
2018-12-10T05:46:11.120Z,15.13
2018-12-10T05:48:39.674Z,19.67
2018-12-10T05:51:08.215Z,21.20
2018-12-10T05:53:36.814Z,19.05
2018-12-10T05:56:05.456Z,17.52
2018-12-10T05:58:33.988Z,16.37
2018-12-10T06:01:02.516Z,15.63
2018-12-10T06:03:31.103Z,14.83
2018-12-10T06:05:59.712Z,18.85
2018-12-10T06:08:28.208Z,18.42
2018-12-10T06:10:56.821Z,19.17
2018-12-10T06:13:25.348Z,21.40
2018-12-10T06:15:53.878Z,22.85
2018-12-10T06:18:22.410Z,16.00
2018-12-10T06:20:50.953Z,15.00
2018-12-10T06:23:19.474Z,18.00
2018-12-10T06:25:48.084Z,14.93
2018-12-10T06:28:16.685Z,18.50
2018-12-10T06:30:45.304Z,13.80
2018-12-10T06:33:13.844Z,14.18
2018-12-10T06:35:42.494Z,5.23
2018-12-10T06:38:11.079Z,6.13
2018-12-10T06:40:39.700Z,6.67
2018-12-10T06:43:08.262Z,5.40
2018-12-10T06:45:36.856Z,7.78
2018-12-10T06:48:05.368Z,5.08
2018-12-10T06:50:34.026Z,5.70
2018-12-10T06:53:02.545Z,7.30
2018-12-10T06:55:31.087Z,7.53
2018-12-10T06:57:59.673Z,9.28
2018-12-10T07:00:28.188Z,7.33
2018-12-10T07:02:56.787Z,8.25
2018-12-10T07:05:25.456Z,7.85
2018-12-10T07:07:54.034Z,5.37
2018-12-10T07:10:22.564Z,7.45
2018-12-10T07:12:51.159Z,7.62
2018-12-10T07:15:20.542Z,7.80
2018-12-10T07:17:49.180Z,7.45
2018-12-10T07:20:17.727Z,10.30
2018-12-10T07:22:46.286Z,6.53
2018-12-10T07:25:14.845Z,7.08
2018-12-10T07:27:43.358Z,11.05
2018-12-10T07:30:12.005Z,6.47
2018-12-10T07:32:40.663Z,8.00
2018-12-10T07:35:09.218Z,5.72
2018-12-10T07:37:37.788Z,5.90
2018-12-10T07:40:06.761Z,6.75
2018-12-10T07:42:36.213Z,5.62
2018-12-10T07:45:05.314Z,5.35
2018-12-10T07:47:33.852Z,4.73
2018-12-10T07:50:02.494Z,5.37
2018-12-10T07:52:31.038Z,4.17
2018-12-10T07:54:59.693Z,6.35
2018-12-10T07:57:28.227Z,4.97
2018-12-10T07:59:56.875Z,5.67
2018-12-10T08:02:25.432Z,6.67
2018-12-10T08:04:53.955Z,5.12
2018-12-10T08:07:22.591Z,5.60
2018-12-10T08:09:51.090Z,6.00
2018-12-10T08:12:19.634Z,6.35
2018-12-10T08:14:48.149Z,6.62
2018-12-10T08:17:16.739Z,7.12
2018-12-10T08:19:45.261Z,6.33
2018-12-10T08:22:13.812Z,5.30
2018-12-10T08:24:42.325Z,7.58
2018-12-10T08:27:10.832Z,10.23
2018-12-10T08:29:39.375Z,7.40
2018-12-10T08:32:07.886Z,7.00
2018-12-10T08:34:41.395Z,6.12
2018-12-10T08:37:06.984Z,10.13
2018-12-10T08:39:36.345Z,6.12
2018-12-10T08:42:04.857Z,5.83
2018-12-10T08:44:33.355Z,8.55
2018-12-10T08:47:01.869Z,10.40
2018-12-10T08:49:30.463Z,8.25
2018-12-10T08:51:59.063Z,7.33
2018-12-10T08:54:27.555Z,6.85
2018-12-10T08:56:56.100Z,7.45
2018-12-10T08:59:24.792Z,7.97
2018-12-10T09:01:53.425Z,9.63
2018-12-10T09:04:22.239Z,11.12
2018-12-10T09:06:51.009Z,14.60
2018-12-10T09:09:19.539Z,15.60
2018-12-10T09:11:48.089Z,25.45
2018-12-10T09:14:16.555Z,12.03
2018-12-10T09:16:45.121Z,12.10
2018-12-10T09:19:13.676Z,17.10
2018-12-10T09:21:42.335Z,16.67
2018-12-10T09:24:10.909Z,13.93
2018-12-10T09:26:39.408Z,14.83
2018-12-10T09:29:08.001Z,16.40
2018-12-10T09:31:36.535Z,12.88
2018-12-10T09:34:06.027Z,11.87
2018-12-10T09:36:34.555Z,10.18
2018-12-10T09:39:04.905Z,10.43
2018-12-10T09:41:33.434Z,11.40
2018-12-10T09:44:02.037Z,11.45
2018-12-10T09:46:30.591Z,10.93
2018-12-10T09:48:59.111Z,9.90
2018-12-10T09:51:27.657Z,12.13
2018-12-10T09:53:56.185Z,14.65
2018-12-10T09:56:24.717Z,12.87
2018-12-10T09:58:53.264Z,10.35
2018-12-10T10:01:21.807Z,8.93
2018-12-10T10:03:50.341Z,11.43
2018-12-10T10:06:18.863Z,12.95
2018-12-10T10:08:49.577Z,15.25
2018-12-10T10:11:18.921Z,12.28
2018-12-10T10:13:47.414Z,12.55
2018-12-10T10:16:16.120Z,14.58
2018-12-10T10:18:44.671Z,14.70
2018-12-10T10:21:13.167Z,13.10
2018-12-10T10:23:41.714Z,13.65
2018-12-10T10:26:10.285Z,16.82
2018-12-10T10:28:38.832Z,13.53
2018-12-10T10:31:07.451Z,13.50
2018-12-10T10:33:36.051Z,15.72
2018-12-10T10:36:04.568Z,16.70
2018-12-10T10:38:33.108Z,20.40
2018-12-10T10:41:01.670Z,20.00
2018-12-10T10:43:30.156Z,17.27
2018-12-10T10:45:58.781Z,19.15
2018-12-10T10:48:27.356Z,14.40
2018-12-10T10:50:55.916Z,17.40
2018-12-10T10:53:24.612Z,22.40
2018-12-10T10:55:53.115Z,20.40
2018-12-10T10:58:23.621Z,18.57
2018-12-10T11:00:57.601Z,19.03
2018-12-10T11:03:31.574Z,22.35
2018-12-10T11:06:00.101Z,17.82
2018-12-10T11:08:28.696Z,18.60
2018-12-10T11:10:57.203Z,19.42
2018-12-10T11:13:25.809Z,18.75
2018-12-10T11:15:54.389Z,22.32
2018-12-10T11:18:22.971Z,19.27
2018-12-10T11:20:51.542Z,17.10
2018-12-10T11:23:20.122Z,22.77
2018-12-10T11:25:48.624Z,20.62
2018-12-10T11:28:17.204Z,26.00
2018-12-10T11:30:45.748Z,20.05
2018-12-10T11:33:14.295Z,22.87
2018-12-10T11:35:42.806Z,18.95
2018-12-10T11:38:11.505Z,20.23
2018-12-10T11:40:40.060Z,21.30
2018-12-10T11:43:08.601Z,22.52
2018-12-10T11:45:37.127Z,20.57
2018-12-10T11:48:05.682Z,24.25
2018-12-10T11:50:34.787Z,25.32
2018-12-10T11:53:03.312Z,20.23
2018-12-10T11:55:31.811Z,21.37
2018-12-10T11:58:00.393Z,19.25
2018-12-10T12:00:29.705Z,18.40
2018-12-10T12:02:58.603Z,24.98
2018-12-10T12:05:27.227Z,17.10
2018-12-10T12:07:56.007Z,22.07
2018-12-10T12:10:25.265Z,23.57
2018-12-10T12:12:53.932Z,21.90
2018-12-10T12:15:22.417Z,27.42
2018-12-10T12:17:50.926Z,23.92
2018-12-10T12:20:19.653Z,19.80
2018-12-10T12:22:48.323Z,22.22
2018-12-10T12:25:16.928Z,21.73
2018-12-10T12:27:45.529Z,28.17
2018-12-10T12:30:14.084Z,23.62
2018-12-10T12:32:42.636Z,25.68
2018-12-10T12:35:12.916Z,31.30
2018-12-10T12:37:42.233Z,27.07
2018-12-10T12:40:10.849Z,24.87
2018-12-10T12:42:39.372Z,22.17
2018-12-10T12:45:07.951Z,21.37
2018-12-10T12:47:36.449Z,24.18
2018-12-10T12:50:05.248Z,24.70
2018-12-10T12:52:33.783Z,19.85
2018-12-10T12:55:02.381Z,26.27
2018-12-10T12:57:30.921Z,23.50
2018-12-10T12:59:59.483Z,26.95
2018-12-10T13:02:27.982Z,28.32
2018-12-10T13:04:56.589Z,30.60
2018-12-10T13:07:25.163Z,28.75
2018-12-10T13:09:53.735Z,29.55
2018-12-10T13:12:22.293Z,30.27
2018-12-10T13:14:50.815Z,26.37
2018-12-10T13:17:19.337Z,27.02
2018-12-10T13:19:48.326Z,22.32
2018-12-10T13:22:16.961Z,39.03
2018-12-10T13:24:45.543Z,24.93
2018-12-10T13:27:14.183Z,25.97
2018-12-10T13:29:42.670Z,19.70
2018-12-10T13:32:14.059Z,17.98
2018-12-10T13:34:42.810Z,22.42
2018-12-10T13:37:11.355Z,24.82
2018-12-10T13:39:39.940Z,20.02
2018-12-10T13:42:08.482Z,26.55
2018-12-10T13:44:36.986Z,24.23
2018-12-10T13:47:05.569Z,19.05
2018-12-10T13:49:34.103Z,23.90
2018-12-10T13:52:02.680Z,30.13
2018-12-10T13:54:31.178Z,20.92
2018-12-10T13:56:59.738Z,23.83
2018-12-10T13:59:28.293Z,26.25
2018-12-10T14:01:56.856Z,22.77
2018-12-10T14:04:31.374Z,27.00
2018-12-10T14:06:59.977Z,33.95
2018-12-10T14:09:28.588Z,31.95
2018-12-10T14:11:57.242Z,28.20
2018-12-10T14:14:25.833Z,31.60
2018-12-10T14:16:54.659Z,33.38
2018-12-10T14:19:23.306Z,30.10
2018-12-10T14:21:51.850Z,35.05
2018-12-10T14:24:20.394Z,31.23
2018-12-10T14:26:48.966Z,39.63
2018-12-10T14:29:17.712Z,30.27
2018-12-10T14:31:46.192Z,38.05
2018-12-10T14:34:20.163Z,43.48
2018-12-10T14:36:48.828Z,36.80
2018-12-10T14:39:17.491Z,35.90
2018-12-10T14:41:46.050Z,36.50
2018-12-10T14:44:14.579Z,34.78
2018-12-10T14:46:43.208Z,34.98
2018-12-10T14:49:11.917Z,41.65
2018-12-10T14:51:40.446Z,39.05
2018-12-10T14:54:09.129Z,34.70
2018-12-10T14:56:37.772Z,41.80
2018-12-10T14:59:06.360Z,38.42
2018-12-10T15:01:34.880Z,35.83
2018-12-10T15:04:03.466Z,38.10
2018-12-10T15:06:32.079Z,36.60
2018-12-10T15:09:00.642Z,34.95
2018-12-10T15:11:29.456Z,38.58
2018-12-10T15:13:58.015Z,58.87
2018-12-10T15:16:27.167Z,38.27
2018-12-10T15:18:55.834Z,37.58
2018-12-10T15:21:24.499Z,30.40
2018-12-10T15:23:53.067Z,27.80
2018-12-10T15:26:21.588Z,29.92
2018-12-10T15:28:50.211Z,35.75
2018-12-10T15:31:18.805Z,39.85
2018-12-10T15:33:47.324Z,31.83
2018-12-10T15:36:15.851Z,33.02
2018-12-10T15:38:44.395Z,32.55
2018-12-10T15:41:12.951Z,31.33
2018-12-10T15:43:41.471Z,37.75
2018-12-10T15:46:10.056Z,32.20
2018-12-10T15:48:38.609Z,30.12
2018-12-10T15:51:07.248Z,28.93
2018-12-10T15:53:35.795Z,26.42
2018-12-10T15:56:04.344Z,32.25
2018-12-10T15:58:32.963Z,24.67
2018-12-10T16:01:01.559Z,27.25
2018-12-10T16:03:30.160Z,28.55
2018-12-10T16:05:58.688Z,28.57
2018-12-10T16:08:27.188Z,28.73
2018-12-10T16:10:55.760Z,29.20
2018-12-10T16:13:24.335Z,32.03
2018-12-10T16:15:53.002Z,28.95
2018-12-10T16:18:21.518Z,32.03
2018-12-10T16:20:50.319Z,35.75
2018-12-10T16:23:18.862Z,32.25
2018-12-10T16:25:47.388Z,33.15
2018-12-10T16:28:15.985Z,37.83
2018-12-10T16:30:44.706Z,42.30
2018-12-10T16:33:13.481Z,35.80
2018-12-10T16:35:42.229Z,37.55
2018-12-10T16:38:10.833Z,36.20
2018-12-10T16:40:39.861Z,28.17
2018-12-10T16:43:08.527Z,35.78
2018-12-10T16:45:37.062Z,32.80
2018-12-10T16:48:05.589Z,38.90
2018-12-10T16:50:34.193Z,37.38
2018-12-10T16:53:02.771Z,34.08
2018-12-10T16:55:31.295Z,28.73
2018-12-10T16:57:59.829Z,27.00
2018-12-10T17:00:29.186Z,114.57
2018-12-10T17:02:57.723Z,34.00
2018-12-10T17:05:29.801Z,37.15
2018-12-10T17:07:58.383Z,36.93
2018-12-10T17:10:26.987Z,57.58
2018-12-10T17:12:55.561Z,30.02
2018-12-10T17:15:24.214Z,32.78
2018-12-10T17:17:52.880Z,32.63
2018-12-10T17:20:21.406Z,30.60
2018-12-10T17:22:50.402Z,32.48
2018-12-10T17:25:18.973Z,29.72
2018-12-10T17:27:47.494Z,34.00
2018-12-10T17:30:16.180Z,34.73
2018-12-10T17:32:44.769Z,36.05
2018-12-10T17:35:13.321Z,30.70
2018-12-10T17:37:42.104Z,41.65
2018-12-10T17:40:10.665Z,36.90
2018-12-10T17:42:39.340Z,45.03
2018-12-10T17:45:09.168Z,37.15
2018-12-10T17:47:38.145Z,43.05
2018-12-10T17:50:09.276Z,38.35
2018-12-10T17:52:37.922Z,38.43
2018-12-10T17:55:06.657Z,42.53
2018-12-10T17:57:35.344Z,45.75
2018-12-10T18:00:04.562Z,39.38
2018-12-10T18:02:33.108Z,43.53
2018-12-10T18:05:01.687Z,36.20
2018-12-10T18:07:30.317Z,44.33
2018-12-10T18:09:58.900Z,47.98
2018-12-10T18:12:27.444Z,42.88
2018-12-10T18:14:55.980Z,38.28
2018-12-10T18:17:24.526Z,44.83
2018-12-10T18:19:53.311Z,46.55
2018-12-10T18:22:21.865Z,45.52
2018-12-10T18:24:50.376Z,43.95
2018-12-10T18:27:18.975Z,47.75
2018-12-10T18:29:47.622Z,40.38
2018-12-10T18:32:16.122Z,46.63
2018-12-10T18:34:44.656Z,45.58
2018-12-10T18:37:13.270Z,38.10
2018-12-10T18:39:41.842Z,42.17
2018-12-10T18:42:10.492Z,36.73
2018-12-10T18:44:39.151Z,37.15
2018-12-10T18:47:07.769Z,37.55
2018-12-10T18:49:36.364Z,28.73
2018-12-10T18:52:05.326Z,40.60
2018-12-10T18:54:35.199Z,36.20
2018-12-10T18:57:03.912Z,27.40
2018-12-10T18:59:32.467Z,32.00
2018-12-10T19:02:00.974Z,33.50
2018-12-10T19:04:29.518Z,34.83
2018-12-10T19:06:58.436Z,34.53
2018-12-10T19:09:27.724Z,32.85
2018-12-10T19:11:57.478Z,31.12
2018-12-10T19:14:26.237Z,33.33
2018-12-10T19:16:55.196Z,28.50
2018-12-10T19:19:24.079Z,31.55
2018-12-10T19:21:53.407Z,30.40
2018-12-10T19:24:22.077Z,30.48
2018-12-10T19:26:50.666Z,30.40
2018-12-10T19:29:19.178Z,31.27
2018-12-10T19:31:47.699Z,37.65
2018-12-10T19:34:16.323Z,39.70
2018-12-10T19:36:45.281Z,31.33
2018-12-10T19:39:13.821Z,127.30
2018-12-10T19:41:42.427Z,36.77
2018-12-10T19:44:10.989Z,37.80
2018-12-10T19:46:39.505Z,37.30
2018-12-10T19:49:08.192Z,39.55
2018-12-10T19:51:36.961Z,38.40
2018-12-10T19:54:05.504Z,36.23
2018-12-10T19:56:34.061Z,41.08
2018-12-10T19:59:02.591Z,37.30
2018-12-10T20:01:31.178Z,39.98
2018-12-10T20:03:59.710Z,36.90
2018-12-10T20:06:32.821Z,48.40
2018-12-10T20:09:01.453Z,38.83
2018-12-10T20:11:30.204Z,40.67
2018-12-10T20:13:58.710Z,38.63
2018-12-10T20:16:27.255Z,39.65
2018-12-10T20:18:56.929Z,38.02
2018-12-10T20:21:25.468Z,38.17
2018-12-10T20:23:54.085Z,41.08
2018-12-10T20:26:22.644Z,42.62
2018-12-10T20:28:51.237Z,37.83
2018-12-10T20:31:19.792Z,35.00
2018-12-10T20:33:48.430Z,40.92
2018-12-10T20:36:17.049Z,33.48
2018-12-10T20:38:45.702Z,35.20
2018-12-10T20:41:14.219Z,23.15
2018-12-10T20:43:42.783Z,42.57
2018-12-10T20:46:11.462Z,26.12
2018-12-10T20:48:40.004Z,38.98
2018-12-10T20:51:08.515Z,43.55
2018-12-10T20:53:37.089Z,33.92
2018-12-10T20:56:05.789Z,39.40
2018-12-10T20:58:34.344Z,41.00
2018-12-10T21:01:02.896Z,41.60
2018-12-10T21:03:31.472Z,40.70
2018-12-10T21:06:05.256Z,47.10
2018-12-10T21:08:33.839Z,43.58
2018-12-10T21:11:02.362Z,51.97
2018-12-10T21:13:31.360Z,41.42
2018-12-10T21:15:59.954Z,39.77
2018-12-10T21:18:28.550Z,44.35
2018-12-10T21:20:57.118Z,41.48
2018-12-10T21:23:25.652Z,41.33
2018-12-10T21:25:54.205Z,46.75
2018-12-10T21:28:22.812Z,42.20
2018-12-10T21:30:51.680Z,44.90
2018-12-10T21:33:20.272Z,42.55
2018-12-10T21:35:49.505Z,44.05
2018-12-10T21:38:18.380Z,44.23
2018-12-10T21:40:46.962Z,45.55
2018-12-10T21:43:15.533Z,38.42
2018-12-10T21:45:44.054Z,45.35
2018-12-10T21:48:12.594Z,39.92
2018-12-10T21:50:41.140Z,42.58
2018-12-10T21:53:09.740Z,38.15
2018-12-10T21:55:38.353Z,40.80
2018-12-10T21:58:06.882Z,45.67
2018-12-10T22:00:35.441Z,43.87
2018-12-10T22:03:04.020Z,40.33
2018-12-10T22:05:32.674Z,37.17
2018-12-10T22:08:01.412Z,32.83
2018-12-10T22:10:30.150Z,38.42
2018-12-10T22:12:59.508Z,31.27
2018-12-10T22:15:28.194Z,46.23
2018-12-10T22:17:57.168Z,42.95
2018-12-10T22:20:25.961Z,34.47
2018-12-10T22:22:55.128Z,38.43
2018-12-10T22:25:23.716Z,35.92
2018-12-10T22:27:52.398Z,37.10
2018-12-10T22:30:21.672Z,29.02
2018-12-10T22:32:50.988Z,35.20
2018-12-10T22:35:19.568Z,38.53
2018-12-10T22:37:48.196Z,42.15
2018-12-10T22:40:16.739Z,36.38
2018-12-10T22:42:45.261Z,32.45
2018-12-10T22:45:13.917Z,38.02
2018-12-10T22:47:42.697Z,43.42
2018-12-10T22:50:11.433Z,39.07
2018-12-10T22:52:40.009Z,43.17
2018-12-10T22:55:08.860Z,33.98
2018-12-10T22:57:37.568Z,38.30
2018-12-10T23:00:07.597Z,37.80
2018-12-10T23:02:36.193Z,39.90
2018-12-10T23:05:05.482Z,38.60
2018-12-10T23:07:34.013Z,41.15
2018-12-10T23:10:02.889Z,34.40
2018-12-10T23:12:31.512Z,37.98
2018-12-10T23:15:00.415Z,42.93
2018-12-10T23:17:29.377Z,34.43
2018-12-10T23:19:58.222Z,34.25
2018-12-10T23:22:27.073Z,33.58
2018-12-10T23:24:55.827Z,37.20
2018-12-10T23:27:24.633Z,38.48
2018-12-10T23:29:53.463Z,35.33
2018-12-10T23:32:22.277Z,38.98
2018-12-10T23:34:51.193Z,36.45
2018-12-10T23:37:20.016Z,35.60
2018-12-10T23:39:48.989Z,32.73
2018-12-10T23:42:17.853Z,34.83
2018-12-10T23:44:51.810Z,37.83
2018-12-10T23:47:20.649Z,30.97
2018-12-10T23:49:50.493Z,32.75
2018-12-10T23:52:19.307Z,36.00
2018-12-10T23:54:47.798Z,27.42
2018-12-10T23:57:33.151Z,32.30
